首页
METAR-TAF:

METAR-TAF

机场 :

Luxeuil-les-Bains, 法国

纬度: 47-47N, 经度: 006-21E, 海拔: 278米

当前天气观测

该预报发布于33分钟前的01:00 UTC
风速5节,风向
温度 12°C
湿度 82%
气压 1015 hPa
能见度10公里或以上
1500米以下无云,无积雨云

METAR: LFSX 170100Z AUTO 08005KT CAVOK 12/09 Q1015

时间: 03:33 (01:33 UTC)

预报

该预报发布于11小时和33分钟前的14:00 UTC
预报有效从16日的 15点(UTC)到 17日的 15点(UTC)
风速4节,风向东南
能见度10公里或以上
1500米以下无云,无积雨云
从 17日的 1400点(UTC)
风速13节,风向西南
能见度10公里或以上
少量云层高于1500英尺
多云层高于2300英尺

TAF: LFSX 161400Z 1615/1715 14004KT CAVOK FM171400 23013KT 9999 FEW015 BKN023

超过4000个机场的气象观测和天气预报(METAR&TAF报告)。

可查询的气象台以黄色和红色小点在地图上表示。

将鼠标移到小点上方,可查看气象台名称。

然后点击查看天气观测和预报。

如需切换地图:点击带黑十字的绿色按钮放大地图;点击带横线的绿色按钮缩小地图;或者点击绿色箭头查看邻近地区的地图。


METAR-TAF: